This is the latest recevied weather packets stored in our database for station/object HS1AXC-1. If no packets are shown the sender has not sent any weather packets the latest 10 day(s).
| Time | Temp. | Humidity | Pressure | Rain* | Wind** | Luminosity | Snow |
|---|---|---|---|---|---|---|---|
| 1777457782 | 36.67° C | 56% | 1006 hPa | - | - | 0 W/m² | - |
| 1777457160 | 37.22° C | 54% | 1006 hPa | - | - | 0 W/m² | - |
| 1777456845 | 36.67° C | 54% | 1006 hPa | - | - | 0 W/m² | - |
| 1777456223 | 36.67° C | 55% | 1006 hPa | - | - | 1 W/m² | - |
| 1777455601 | 37.22° C | 53% | 1006 hPa | - | - | 1 W/m² | - |
| 1777454979 | 38.33° C | 52% | 1006 hPa | - | - | 1 W/m² | - |
| 1777454357 | 37.78° C | 52% | 1006 hPa | - | - | 1 W/m² | - |
| 1777453735 | 37.78° C | 52% | 1006 hPa | - | - | 1 W/m² | - |
| 1777453113 | 37.22° C | 53% | 1006 hPa | - | - | 1 W/m² | - |
| 1777452491 | 38.33° C | 51% | 1006 hPa | - | - | 1 W/m² | - |
| 1777451868 | 37.22° C | 53% | 1006 hPa | - | - | 2 W/m² | - |
| 1777451274 | 37.78° C | 51% | 1006 hPa | - | - | 2 W/m² | - |
| 1777450651 | 37.78° C | 51% | 1006 hPa | - | - | 1 W/m² | - |
| 1777450029 | 37.78° C | 51% | 1006 hPa | - | - | 0 W/m² | - |
| 1777449407 | 38.33° C | 51% | 1006 hPa | - | - | 0 W/m² | - |
| 1777448541 | 38.33° C | 52% | 1006 hPa | - | - | 2 W/m² | - |
| 1777447919 | 38.89° C | 50% | 1007 hPa | - | - | 2 W/m² | - |
| 1777447297 | 40° C | 48% | 1007 hPa | - | - | 2 W/m² | - |
| 1777446675 | 39.44° C | 49% | 1007 hPa | - | - | 3 W/m² | - |
| 1777446341 | 40° C | 48% | 1006 hPa | - | - | 3 W/m² | - |
| 1777445718 | 39.44° C | 48% | 1007 hPa | - | - | 3 W/m² | - |
| 1777445096 | 39.44° C | 47% | 1007 hPa | - | - | 3 W/m² | - |
| 1777444474 | 39.44° C | 45% | 1007 hPa | - | - | 3 W/m² | - |
| 1777443852 | 39.44° C | 38% | 1007 hPa | - | - | 1 W/m² | - |
| 1777442926 | 40.56° C | 37% | 1007 hPa | - | - | 4 W/m² | - |
* Rain since midnight (hover to see other rain measurements)
** Current wind speed in m/s (hover to see current wind gust speed)